Airfield :
LOGIN :

Register | Disclaimer

   EN    FR    IT 

 










Legend :    VFR   Marginal VFR   IFR   Intensive IFR   Very Intensive IFR
Visi :
Ceiling :
>= 8 km
>= 3000ft
5 to 8 km
1000 to 3000 ft
1500m to 5 km
500 to 1000 ft
800 to 1500m
200 to 500 ft
< 800m
< 200 ft
Symbols :   Thunderstorms  Fog  Heavy snow  Heavy precipitations  Wind > 20 kt
SIGMETs :     Misc.  Thunderstorms  Icing  Turbulence  Mountain Waves  Volcanic Ashes






- Airport Elevation : 63 ft
- IATA code : BZM


EHWO - Woensdrecht Airbase

CURRENT METAR :
  • 071025Z AUTO 28010KT 220V330 9999 FEW029 16/08 Q1007 BLU

EXPIRED METARs :
  • 071011Z AUTO 29011KT 240V350 9999 FEW024 16/08 Q1007 BLU
  • 070955Z AUTO 27011KT 230V330 9999 SCT022 BKN026 BKN030 15/09 Q1007 WHT
  • 070925Z AUTO 27012KT 230V310 9999 FEW023 SCT032 BKN047 14/09 Q1006 BLU
  • 070855Z AUTO 26012KT 210V320 9999 FEW025 SCT030 BKN049 15/08 Q1006 BLU
  • 070825Z AUTO 27012KT 230V300 9999 FEW024 SCT030 BKN040 13/08 Q1006 BLU
  • 070755Z AUTO 26012KT 230V290 9999 FEW026 BKN042 BKN047 13/08 Q1005 BLU
  • 070751Z AUTO 27012KT 230V300 9999 FEW019 SCT027 OVC042 13/08 Q1005 BLU
  • 070740Z AUTO 26011KT 210V300 9999 FEW017 SCT021 BKN045 13/09 Q1005 WHT
  • 070729Z AUTO 26011KT 210V290 9999 FEW014 SCT016 BKN025 13/09 Q1005 WHT

Expired Forecast.



MET'MAP, your aeronautical weather chart ! - Copyright ORBIFLY December 2007 - Disclaimer

ORBIFLY MET'MAP TEAM :

Programming & Development : Alexandra Zaïnal
Concept & original design : Baudouin d'Aumeries
Assistance for programming : Marc-Olivier Méhu
Technical & hardware support : Manuel Goepfert

Contact : metmap@orbifly.com




SOURCES & CREDITS :

   NOAA